sensor_id;sensor_type;location;lat;lon;timestamp;temperature;humidity
13744;DHT22;6943;52.368;9.966;2023-03-01T00:01:47;-0.80;1.00
13744;DHT22;6943;52.368;9.966;2023-03-01T00:04:12;-0.80;1.00
13744;DHT22;6943;52.368;9.966;2023-03-01T00:06:38;-0.80;1.00
13744;DHT22;6943;52.368;9.966;2023-03-01T00:09:04;-0.90;1.00
13744;DHT22;6943;52.368;9.966;2023-03-01T00:11:31;-0.80;1.00
13744;DHT22;6943;52.368;9.966;2023-03-01T00:13:59;-0.80;1.00
13744;DHT22;6943;52.368;9.966;2023-03-01T00:16:30;-0.80;1.00
13744;DHT22;6943;52.368;9.966;2023-03-01T00:21:28;-0.90;1.00
13744;DHT22;6943;52.368;9.966;2023-03-01T00:23:54;-0.90;1.00
13744;DHT22;6943;52.368;9.966;2023-03-01T00:26:21;-0.90;1.00
13744;DHT22;6943;52.368;9.966;2023-03-01T00:28:47;-0.90;1.00
13744;DHT22;6943;52.368;9.966;2023-03-01T00:31:15;-0.90;1.00
13744;DHT22;6943;52.368;9.966;2023-03-01T00:33:42;-0.90;1.00
13744;DHT22;6943;52.368;9.966;2023-03-01T00:36:09;-1.00;1.00
13744;DHT22;6943;52.368;9.966;2023-03-01T00:38:35;-1.00;1.00
13744;DHT22;6943;52.368;9.966;2023-03-01T00:41:12;-1.00;1.00
13744;DHT22;6943;52.368;9.966;2023-03-01T00:43:38;-1.00;1.00
13744;DHT22;6943;52.368;9.966;2023-03-01T00:46:05;-1.10;1.00
13744;DHT22;6943;52.368;9.966;2023-03-01T00:48:32;-1.00;1.00
13744;DHT22;6943;52.368;9.966;2023-03-01T00:51:06;-1.10;1.00
13744;DHT22;6943;52.368;9.966;2023-03-01T00:53:33;-1.10;1.00
13744;DHT22;6943;52.368;9.966;2023-03-01T00:55:58;-1.20;1.00
13744;DHT22;6943;52.368;9.966;2023-03-01T00:58:24;-1.20;1.00
13744;DHT22;6943;52.368;9.966;2023-03-01T01:00:50;-1.30;1.00
13744;DHT22;6943;52.368;9.966;2023-03-01T01:03:15;-1.20;1.00
13744;DHT22;6943;52.368;9.966;2023-03-01T01:05:41;-1.20;1.00
13744;DHT22;6943;52.368;9.966;2023-03-01T01:08:06;-1.20;1.00
13744;DHT22;6943;52.368;9.966;2023-03-01T01:10:34;-1.20;1.00
13744;DHT22;6943;52.368;9.966;2023-03-01T01:12:59;-1.20;1.00
13744;DHT22;6943;52.368;9.966;2023-03-01T01:15:25;-1.20;1.00
13744;DHT22;6943;52.368;9.966;2023-03-01T01:17:51;-1.20;1.00
13744;DHT22;6943;52.368;9.966;2023-03-01T01:20:16;-1.20;1.00
13744;DHT22;6943;52.368;9.966;2023-03-01T01:22:42;-1.20;18.40
13744;DHT22;6943;52.368;9.966;2023-03-01T01:25:08;-1.10;25.30
13744;DHT22;6943;52.368;9.966;2023-03-01T01:27:33;-1.10;1.00
13744;DHT22;6943;52.368;9.966;2023-03-01T01:29:59;-1.10;1.00
13744;DHT22;6943;52.368;9.966;2023-03-01T01:32:24;-1.20;1.00
13744;DHT22;6943;52.368;9.966;2023-03-01T01:34:50;-1.20;1.00
13744;DHT22;6943;52.368;9.966;2023-03-01T01:37:15;-1.30;1.00
13744;DHT22;6943;52.368;9.966;2023-03-01T01:39:41;-1.30;1.00
13744;DHT22;6943;52.368;9.966;2023-03-01T01:42:15;-1.30;1.00
13744;DHT22;6943;52.368;9.966;2023-03-01T01:44:44;-1.30;1.00
13744;DHT22;6943;52.368;9.966;2023-03-01T01:47:19;-1.40;1.00
13744;DHT22;6943;52.368;9.966;2023-03-01T01:49:49;-1.40;1.00
13744;DHT22;6943;52.368;9.966;2023-03-01T01:52:24;-1.30;1.00
13744;DHT22;6943;52.368;9.966;2023-03-01T01:54:57;-1.40;1.00
13744;DHT22;6943;52.368;9.966;2023-03-01T01:57:40;-1.40;1.00
13744;DHT22;6943;52.368;9.966;2023-03-01T02:00:16;-1.40;1.00
13744;DHT22;6943;52.368;9.966;2023-03-01T02:02:43;-1.40;1.00
13744;DHT22;6943;52.368;9.966;2023-03-01T02:05:16;-1.40;1.00
13744;DHT22;6943;52.368;9.966;2023-03-01T02:07:44;-1.40;1.00
13744;DHT22;6943;52.368;9.966;2023-03-01T02:10:11;-1.50;1.00
13744;DHT22;6943;52.368;9.966;2023-03-01T02:12:38;-1.50;1.00
13744;DHT22;6943;52.368;9.966;2023-03-01T02:15:05;-1.50;1.00
13744;DHT22;6943;52.368;9.966;2023-03-01T02:17:30;-1.60;39.60
13744;DHT22;6943;52.368;9.966;2023-03-01T02:20:26;-1.60;97.20
13744;DHT22;6943;52.368;9.966;2023-03-01T02:22:48;-1.60;99.90
13744;DHT22;6943;52.368;9.966;2023-03-01T02:30:46;-1.70;1.00
13744;DHT22;6943;52.368;9.966;2023-03-01T02:33:33;-1.70;56.80
13744;DHT22;6943;52.368;9.966;2023-03-01T02:36:03;-1.70;99.90
13744;DHT22;6943;52.368;9.966;2023-03-01T02:38:29;-1.70;99.90
13744;DHT22;6943;52.368;9.966;2023-03-01T02:40:57;-1.70;99.90
13744;DHT22;6943;52.368;9.966;2023-03-01T02:43:27;-1.70;99.90
13744;DHT22;6943;52.368;9.966;2023-03-01T02:45:58;-1.70;99.90
13744;DHT22;6943;52.368;9.966;2023-03-01T02:48:24;-1.70;99.90
13744;DHT22;6943;52.368;9.966;2023-03-01T02:51:05;-1.80;99.90
13744;DHT22;6943;52.368;9.966;2023-03-01T02:53:53;-1.80;99.90
13744;DHT22;6943;52.368;9.966;2023-03-01T02:56:21;-1.80;99.90
13744;DHT22;6943;52.368;9.966;2023-03-01T02:58:47;-1.80;99.90
13744;DHT22;6943;52.368;9.966;2023-03-01T03:01:18;-1.80;99.90
13744;DHT22;6943;52.368;9.966;2023-03-01T03:03:43;-1.80;99.90
13744;DHT22;6943;52.368;9.966;2023-03-01T03:06:09;-1.80;99.90
13744;DHT22;6943;52.368;9.966;2023-03-01T03:08:35;-1.90;99.90
13744;DHT22;6943;52.368;9.966;2023-03-01T03:11:00;-1.90;99.90
13744;DHT22;6943;52.368;9.966;2023-03-01T03:13:26;-1.90;99.90
13744;DHT22;6943;52.368;9.966;2023-03-01T03:15:54;-1.90;99.90
13744;DHT22;6943;52.368;9.966;2023-03-01T03:18:22;-1.90;99.90
13744;DHT22;6943;52.368;9.966;2023-03-01T03:20:47;-1.90;99.90
13744;DHT22;6943;52.368;9.966;2023-03-01T03:23:17;-2.00;1.00
13744;DHT22;6943;52.368;9.966;2023-03-01T03:25:43;-2.00;1.00
13744;DHT22;6943;52.368;9.966;2023-03-01T03:28:08;-2.00;1.00
13744;DHT22;6943;52.368;9.966;2023-03-01T03:30:39;-2.00;1.00
13744;DHT22;6943;52.368;9.966;2023-03-01T03:33:06;-2.00;1.00
13744;DHT22;6943;52.368;9.966;2023-03-01T03:35:34;-2.00;1.00
13744;DHT22;6943;52.368;9.966;2023-03-01T03:38:06;-2.00;1.00
13744;DHT22;6943;52.368;9.966;2023-03-01T03:40:39;-2.00;1.00
13744;DHT22;6943;52.368;9.966;2023-03-01T03:43:07;-2.00;1.00
13744;DHT22;6943;52.368;9.966;2023-03-01T03:45:33;-2.00;1.00
13744;DHT22;6943;52.368;9.966;2023-03-01T03:48:02;-2.00;1.00
13744;DHT22;6943;52.368;9.966;2023-03-01T03:50:28;-1.90;1.00
13744;DHT22;6943;52.368;9.966;2023-03-01T03:52:54;-1.90;99.90
13744;DHT22;6943;52.368;9.966;2023-03-01T03:55:20;-1.90;99.90
13744;DHT22;6943;52.368;9.966;2023-03-01T03:57:47;-1.90;99.90
13744;DHT22;6943;52.368;9.966;2023-03-01T04:00:19;-2.00;99.90
13744;DHT22;6943;52.368;9.966;2023-03-01T04:02:45;-2.00;99.90
13744;DHT22;6943;52.368;9.966;2023-03-01T04:05:13;-2.00;99.90
13744;DHT22;6943;52.368;9.966;2023-03-01T04:07:40;-2.10;99.90
13744;DHT22;6943;52.368;9.966;2023-03-01T04:10:09;-2.10;99.90
13744;DHT22;6943;52.368;9.966;2023-03-01T04:12:35;-2.20;99.90
13744;DHT22;6943;52.368;9.966;2023-03-01T04:15:05;-2.20;98.00
13744;DHT22;6943;52.368;9.966;2023-03-01T04:17:44;-2.10;99.90
13744;DHT22;6943;52.368;9.966;2023-03-01T04:20:18;-2.00;99.90
13744;DHT22;6943;52.368;9.966;2023-03-01T04:22:58;-2.00;81.30
13744;DHT22;6943;52.368;9.966;2023-03-01T04:25:24;-2.00;76.00
13744;DHT22;6943;52.368;9.966;2023-03-01T04:27:49;-2.10;81.20
13744;DHT22;6943;52.368;9.966;2023-03-01T04:30:15;-2.10;81.00
13744;DHT22;6943;52.368;9.966;2023-03-01T04:32:41;-2.20;68.80
13744;DHT22;6943;52.368;9.966;2023-03-01T04:35:07;-2.20;1.00
13744;DHT22;6943;52.368;9.966;2023-03-01T04:37:33;-2.30;1.00
13744;DHT22;6943;52.368;9.966;2023-03-01T04:40:00;-2.40;1.00
13744;DHT22;6943;52.368;9.966;2023-03-01T04:42:25;-2.40;1.00
13744;DHT22;6943;52.368;9.966;2023-03-01T04:44:52;-2.40;37.60
13744;DHT22;6943;52.368;9.966;2023-03-01T04:47:17;-2.40;56.50
13744;DHT22;6943;52.368;9.966;2023-03-01T04:49:43;-2.40;69.90
13744;DHT22;6943;52.368;9.966;2023-03-01T04:52:08;-2.30;89.50
13744;DHT22;6943;52.368;9.966;2023-03-01T04:54:35;-2.30;99.90
13744;DHT22;6943;52.368;9.966;2023-03-01T04:57:01;-2.30;99.90
13744;DHT22;6943;52.368;9.966;2023-03-01T04:59:27;-2.30;51.50
13744;DHT22;6943;52.368;9.966;2023-03-01T05:01:54;-2.20;96.60
13744;DHT22;6943;52.368;9.966;2023-03-01T05:04:23;-2.20;99.90
13744;DHT22;6943;52.368;9.966;2023-03-01T05:06:49;-2.10;99.90
13744;DHT22;6943;52.368;9.966;2023-03-01T05:09:15;-2.10;29.70
13744;DHT22;6943;52.368;9.966;2023-03-01T05:11:40;-2.10;44.40
13744;DHT22;6943;52.368;9.966;2023-03-01T05:14:07;-2.20;93.80
13744;DHT22;6943;52.368;9.966;2023-03-01T05:16:34;-2.20;99.90
13744;DHT22;6943;52.368;9.966;2023-03-01T05:18:59;-2.30;99.90
13744;DHT22;6943;52.368;9.966;2023-03-01T05:21:26;-2.30;99.90
13744;DHT22;6943;52.368;9.966;2023-03-01T05:23:51;-2.30;99.90
13744;DHT22;6943;52.368;9.966;2023-03-01T05:26:18;-2.40;55.90
13744;DHT22;6943;52.368;9.966;2023-03-01T05:28:44;-2.50;1.00
13744;DHT22;6943;52.368;9.966;2023-03-01T05:31:10;-2.60;1.00
13744;DHT22;6943;52.368;9.966;2023-03-01T05:33:39;-2.60;55.50
13744;DHT22;6943;52.368;9.966;2023-03-01T05:36:07;-2.60;92.70
13744;DHT22;6943;52.368;9.966;2023-03-01T05:38:33;-2.50;99.90
13744;DHT22;6943;52.368;9.966;2023-03-01T05:40:59;-2.50;99.90
13744;DHT22;6943;52.368;9.966;2023-03-01T05:43:25;-2.60;99.90
13744;DHT22;6943;52.368;9.966;2023-03-01T05:45:50;-2.60;99.90
13744;DHT22;6943;52.368;9.966;2023-03-01T05:48:16;-2.60;77.10
13744;DHT22;6943;52.368;9.966;2023-03-01T05:50:45;-2.60;84.40
13744;DHT22;6943;52.368;9.966;2023-03-01T05:53:13;-2.60;99.90
13744;DHT22;6943;52.368;9.966;2023-03-01T05:55:39;-2.60;61.70
13744;DHT22;6943;52.368;9.966;2023-03-01T05:58:08;-2.50;90.90
13744;DHT22;6943;52.368;9.966;2023-03-01T06:00:34;-2.50;90.40
13744;DHT22;6943;52.368;9.966;2023-03-01T06:03:00;-2.50;13.40
13744;DHT22;6943;52.368;9.966;2023-03-01T06:05:26;-2.50;1.00
13744;DHT22;6943;52.368;9.966;2023-03-01T06:07:52;-2.50;17.50
13744;DHT22;6943;52.368;9.966;2023-03-01T06:10:20;-2.50;99.90
13744;DHT22;6943;52.368;9.966;2023-03-01T06:12:46;-2.50;99.90
13744;DHT22;6943;52.368;9.966;2023-03-01T06:15:13;-2.40;99.90
13744;DHT22;6943;52.368;9.966;2023-03-01T06:17:40;-2.40;99.90
13744;DHT22;6943;52.368;9.966;2023-03-01T06:20:18;-2.30;99.90
13744;DHT22;6943;52.368;9.966;2023-03-01T06:22:44;-2.30;99.90
13744;DHT22;6943;52.368;9.966;2023-03-01T06:25:10;-2.30;1.00
13744;DHT22;6943;52.368;9.966;2023-03-01T06:27:37;-2.30;1.00
13744;DHT22;6943;52.368;9.966;2023-03-01T06:30:03;-2.20;1.00
13744;DHT22;6943;52.368;9.966;2023-03-01T06:32:29;-1.90;1.00
13744;DHT22;6943;52.368;9.966;2023-03-01T06:34:55;-1.20;1.00
13744;DHT22;6943;52.368;9.966;2023-03-01T06:37:21;-0.90;1.00
13744;DHT22;6943;52.368;9.966;2023-03-01T06:39:46;-1.00;99.90
13744;DHT22;6943;52.368;9.966;2023-03-01T06:42:12;-1.00;99.90
13744;DHT22;6943;52.368;9.966;2023-03-01T06:44:37;-1.10;99.90
13744;DHT22;6943;52.368;9.966;2023-03-01T06:47:04;-1.10;99.90
13744;DHT22;6943;52.368;9.966;2023-03-01T06:49:29;-1.10;99.90
13744;DHT22;6943;52.368;9.966;2023-03-01T06:51:55;-1.10;99.90
13744;DHT22;6943;52.368;9.966;2023-03-01T06:54:21;-1.00;99.90
13744;DHT22;6943;52.368;9.966;2023-03-01T06:56:50;-1.00;99.90
13744;DHT22;6943;52.368;9.966;2023-03-01T06:59:16;-1.00;99.90
13744;DHT22;6943;52.368;9.966;2023-03-01T07:01:42;-1.00;99.90
13744;DHT22;6943;52.368;9.966;2023-03-01T07:04:08;-0.90;99.90
13744;DHT22;6943;52.368;9.966;2023-03-01T07:06:34;-0.80;99.90
13744;DHT22;6943;52.368;9.966;2023-03-01T07:09:00;-0.70;99.90
13744;DHT22;6943;52.368;9.966;2023-03-01T07:11:26;-0.60;99.90
13744;DHT22;6943;52.368;9.966;2023-03-01T07:13:51;-0.50;99.90
13744;DHT22;6943;52.368;9.966;2023-03-01T07:16:17;-0.40;99.90
13744;DHT22;6943;52.368;9.966;2023-03-01T07:18:43;-0.40;99.90
13744;DHT22;6943;52.368;9.966;2023-03-01T07:21:11;-0.30;99.90
13744;DHT22;6943;52.368;9.966;2023-03-01T07:23:37;-0.20;99.90
13744;DHT22;6943;52.368;9.966;2023-03-01T07:26:03;-0.10;99.90
13744;DHT22;6943;52.368;9.966;2023-03-01T07:28:29;0.00;99.90
13744;DHT22;6943;52.368;9.966;2023-03-01T07:31:00;0.10;99.90
13744;DHT22;6943;52.368;9.966;2023-03-01T07:33:26;0.20;99.90
13744;DHT22;6943;52.368;9.966;2023-03-01T07:35:59;0.20;99.90
13744;DHT22;6943;52.368;9.966;2023-03-01T07:38:26;0.20;94.20
13744;DHT22;6943;52.368;9.966;2023-03-01T07:40:52;0.30;99.90
13744;DHT22;6943;52.368;9.966;2023-03-01T07:43:17;0.40;99.90
13744;DHT22;6943;52.368;9.966;2023-03-01T07:45:43;0.60;99.90
13744;DHT22;6943;52.368;9.966;2023-03-01T07:48:10;0.70;31.50
13744;DHT22;6943;52.368;9.966;2023-03-01T07:50:35;2.00;99.90
13744;DHT22;6943;52.368;9.966;2023-03-01T07:53:01;3.70;1.00
13744;DHT22;6943;52.368;9.966;2023-03-01T07:55:27;5.80;99.90
13744;DHT22;6943;52.368;9.966;2023-03-01T07:57:53;6.90;99.90
13744;DHT22;6943;52.368;9.966;2023-03-01T08:00:19;8.60;99.90
13744;DHT22;6943;52.368;9.966;2023-03-01T08:02:44;9.80;99.90
13744;DHT22;6943;52.368;9.966;2023-03-01T08:05:10;11.20;99.90
13744;DHT22;6943;52.368;9.966;2023-03-01T08:07:36;12.50;99.90
13744;DHT22;6943;52.368;9.966;2023-03-01T08:10:02;12.20;99.90
13744;DHT22;6943;52.368;9.966;2023-03-01T08:12:28;11.80;99.90
13744;DHT22;6943;52.368;9.966;2023-03-01T08:14:54;11.60;99.90
13744;DHT22;6943;52.368;9.966;2023-03-01T08:17:19;11.30;99.90
13744;DHT22;6943;52.368;9.966;2023-03-01T08:19:45;10.00;99.90
13744;DHT22;6943;52.368;9.966;2023-03-01T08:22:11;9.40;99.90
13744;DHT22;6943;52.368;9.966;2023-03-01T08:24:36;10.60;99.90
13744;DHT22;6943;52.368;9.966;2023-03-01T08:27:02;10.90;99.90
13744;DHT22;6943;52.368;9.966;2023-03-01T08:29:30;12.00;99.90
13744;DHT22;6943;52.368;9.966;2023-03-01T08:31:56;12.40;99.90
13744;DHT22;6943;52.368;9.966;2023-03-01T08:34:21;13.40;99.90
13744;DHT22;6943;52.368;9.966;2023-03-01T08:36:47;14.50;99.90
13744;DHT22;6943;52.368;9.966;2023-03-01T08:39:15;13.50;99.90
13744;DHT22;6943;52.368;9.966;2023-03-01T08:41:41;13.00;99.90
13744;DHT22;6943;52.368;9.966;2023-03-01T08:44:07;12.10;99.90
13744;DHT22;6943;52.368;9.966;2023-03-01T08:46:38;13.30;99.90
13744;DHT22;6943;52.368;9.966;2023-03-01T08:49:05;13.60;99.90
13744;DHT22;6943;52.368;9.966;2023-03-01T08:51:32;13.90;99.90
13744;DHT22;6943;52.368;9.966;2023-03-01T08:54:04;13.80;99.90
13744;DHT22;6943;52.368;9.966;2023-03-01T08:56:30;12.70;99.90
13744;DHT22;6943;52.368;9.966;2023-03-01T08:58:56;11.20;99.90
13744;DHT22;6943;52.368;9.966;2023-03-01T09:01:22;10.80;99.90
13744;DHT22;6943;52.368;9.966;2023-03-01T09:03:47;10.70;99.90
13744;DHT22;6943;52.368;9.966;2023-03-01T09:06:13;11.10;99.90
13744;DHT22;6943;52.368;9.966;2023-03-01T09:08:42;11.50;99.90
13744;DHT22;6943;52.368;9.966;2023-03-01T09:11:10;10.80;99.90
13744;DHT22;6943;52.368;9.966;2023-03-01T09:13:36;10.50;99.90
13744;DHT22;6943;52.368;9.966;2023-03-01T09:16:04;10.60;99.90
13744;DHT22;6943;52.368;9.966;2023-03-01T09:18:30;11.10;99.90
13744;DHT22;6943;52.368;9.966;2023-03-01T09:21:07;11.40;99.90
13744;DHT22;6943;52.368;9.966;2023-03-01T09:23:37;11.10;99.90
13744;DHT22;6943;52.368;9.966;2023-03-01T09:26:15;10.30;99.90
13744;DHT22;6943;52.368;9.966;2023-03-01T09:28:42;10.20;99.90
13744;DHT22;6943;52.368;9.966;2023-03-01T09:31:07;10.30;99.90
13744;DHT22;6943;52.368;9.966;2023-03-01T09:33:33;9.60;99.90
13744;DHT22;6943;52.368;9.966;2023-03-01T09:36:06;9.80;99.90
13744;DHT22;6943;52.368;9.966;2023-03-01T09:38:33;10.60;99.90
13744;DHT22;6943;52.368;9.966;2023-03-01T09:40:59;10.60;99.90
13744;DHT22;6943;52.368;9.966;2023-03-01T09:43:39;10.60;99.90
13744;DHT22;6943;52.368;9.966;2023-03-01T09:46:09;9.70;99.90
13744;DHT22;6943;52.368;9.966;2023-03-01T09:48:57;8.00;99.90
13744;DHT22;6943;52.368;9.966;2023-03-01T09:51:30;7.20;99.90
13744;DHT22;6943;52.368;9.966;2023-03-01T09:53:56;6.10;99.90
13744;DHT22;6943;52.368;9.966;2023-03-01T09:56:32;5.20;99.90
13744;DHT22;6943;52.368;9.966;2023-03-01T09:59:30;4.50;99.90
13744;DHT22;6943;52.368;9.966;2023-03-01T10:01:59;4.50;99.90
13744;DHT22;6943;52.368;9.966;2023-03-01T10:04:47;4.50;99.90
13744;DHT22;6943;52.368;9.966;2023-03-01T10:09:50;4.70;99.90
13744;DHT22;6943;52.368;9.966;2023-03-01T10:12:22;4.90;99.90
13744;DHT22;6943;52.368;9.966;2023-03-01T10:15:04;4.50;99.90
13744;DHT22;6943;52.368;9.966;2023-03-01T10:17:35;4.50;99.90
13744;DHT22;6943;52.368;9.966;2023-03-01T10:20:15;4.40;99.90
13744;DHT22;6943;52.368;9.966;2023-03-01T10:22:41;4.20;99.90
13744;DHT22;6943;52.368;9.966;2023-03-01T10:25:13;4.20;99.90
13744;DHT22;6943;52.368;9.966;2023-03-01T10:28:02;4.40;99.90
13744;DHT22;6943;52.368;9.966;2023-03-01T10:30:37;4.30;99.90
13744;DHT22;6943;52.368;9.966;2023-03-01T10:33:12;4.50;99.90
13744;DHT22;6943;52.368;9.966;2023-03-01T10:35:39;4.40;99.90
13744;DHT22;6943;52.368;9.966;2023-03-01T10:38:14;4.60;99.90
13744;DHT22;6943;52.368;9.966;2023-03-01T10:43:17;4.50;99.90
13744;DHT22;6943;52.368;9.966;2023-03-01T10:45:43;4.70;99.90
13744;DHT22;6943;52.368;9.966;2023-03-01T10:48:19;4.70;99.90
13744;DHT22;6943;52.368;9.966;2023-03-01T10:50:48;4.60;99.90
13744;DHT22;6943;52.368;9.966;2023-03-01T10:53:37;4.40;99.90
13744;DHT22;6943;52.368;9.966;2023-03-01T10:56:11;4.60;99.90
13744;DHT22;6943;52.368;9.966;2023-03-01T10:58:41;4.70;99.90
13744;DHT22;6943;52.368;9.966;2023-03-01T11:01:32;4.80;99.90
13744;DHT22;6943;52.368;9.966;2023-03-01T11:06:33;4.90;99.90
13744;DHT22;6943;52.368;9.966;2023-03-01T11:11:39;5.00;99.90
13744;DHT22;6943;52.368;9.966;2023-03-01T11:14:16;5.10;99.90
13744;DHT22;6943;52.368;9.966;2023-03-01T11:16:44;5.20;99.90
13744;DHT22;6943;52.368;9.966;2023-03-01T11:24:47;5.30;99.90
13744;DHT22;6943;52.368;9.966;2023-03-01T11:27:18;5.40;99.90
13744;DHT22;6943;52.368;9.966;2023-03-01T11:29:48;5.40;99.90
13744;DHT22;6943;52.368;9.966;2023-03-01T11:32:16;5.40;99.90
13744;DHT22;6943;52.368;9.966;2023-03-01T11:34:47;5.40;99.90
13744;DHT22;6943;52.368;9.966;2023-03-01T11:37:37;5.20;99.90
13744;DHT22;6943;52.368;9.966;2023-03-01T11:45:23;5.40;99.90
13744;DHT22;6943;52.368;9.966;2023-03-01T11:50:48;5.40;99.90
13744;DHT22;6943;52.368;9.966;2023-03-01T11:53:34;5.40;99.90
13744;DHT22;6943;52.368;9.966;2023-03-01T11:59:01;5.40;99.90
13744;DHT22;6943;52.368;9.966;2023-03-01T12:01:50;5.60;99.90
13744;DHT22;6943;52.368;9.966;2023-03-01T12:10:22;5.70;99.90
13744;DHT22;6943;52.368;9.966;2023-03-01T12:13:06;5.70;99.90
13744;DHT22;6943;52.368;9.966;2023-03-01T12:16:55;5.80;99.90
13744;DHT22;6943;52.368;9.966;2023-03-01T12:24:48;5.90;99.90
13744;DHT22;6943;52.368;9.966;2023-03-01T12:30:35;5.90;99.90
13744;DHT22;6943;52.368;9.966;2023-03-01T12:33:10;6.00;99.90
13744;DHT22;6943;52.368;9.966;2023-03-01T12:38:45;6.00;99.90
13744;DHT22;6943;52.368;9.966;2023-03-01T12:41:35;5.80;99.90
13744;DHT22;6943;52.368;9.966;2023-03-01T12:44:31;5.90;99.90
13744;DHT22;6943;52.368;9.966;2023-03-01T12:49:57;6.30;99.90
13744;DHT22;6943;52.368;9.966;2023-03-01T12:52:37;6.20;99.90
13744;DHT22;6943;52.368;9.966;2023-03-01T12:55:17;6.30;99.90
13744;DHT22;6943;52.368;9.966;2023-03-01T12:58:00;6.20;99.90
13744;DHT22;6943;52.368;9.966;2023-03-01T13:00:32;6.20;99.90
13744;DHT22;6943;52.368;9.966;2023-03-01T13:03:17;6.20;99.90
13744;DHT22;6943;52.368;9.966;2023-03-01T13:05:56;6.20;99.90
13744;DHT22;6943;52.368;9.966;2023-03-01T13:08:36;6.20;99.90
13744;DHT22;6943;52.368;9.966;2023-03-01T13:11:05;6.30;99.90
13744;DHT22;6943;52.368;9.966;2023-03-01T13:13:32;6.40;99.90
13744;DHT22;6943;52.368;9.966;2023-03-01T13:16:21;6.50;99.90
13744;DHT22;6943;52.368;9.966;2023-03-01T13:18:48;6.30;99.90
13744;DHT22;6943;52.368;9.966;2023-03-01T13:21:30;6.30;99.90
13744;DHT22;6943;52.368;9.966;2023-03-01T13:23:57;6.60;99.90
13744;DHT22;6943;52.368;9.966;2023-03-01T13:26:22;6.70;99.90
13744;DHT22;6943;52.368;9.966;2023-03-01T13:28:53;6.50;99.90
13744;DHT22;6943;52.368;9.966;2023-03-01T13:33:58;6.70;99.90
13744;DHT22;6943;52.368;9.966;2023-03-01T13:38:59;6.90;99.90
13744;DHT22;6943;52.368;9.966;2023-03-01T13:46:44;6.80;99.90
13744;DHT22;6943;52.368;9.966;2023-03-01T13:49:18;6.70;99.90
13744;DHT22;6943;52.368;9.966;2023-03-01T13:51:47;6.70;99.90
13744;DHT22;6943;52.368;9.966;2023-03-01T13:54:14;6.70;99.90
13744;DHT22;6943;52.368;9.966;2023-03-01T13:56:43;6.60;99.90
13744;DHT22;6943;52.368;9.966;2023-03-01T13:59:19;6.50;99.90
13744;DHT22;6943;52.368;9.966;2023-03-01T14:01:52;6.60;99.90
13744;DHT22;6943;52.368;9.966;2023-03-01T14:04:30;6.50;99.90
13744;DHT22;6943;52.368;9.966;2023-03-01T14:07:10;6.70;99.90
13744;DHT22;6943;52.368;9.966;2023-03-01T14:09:40;6.70;99.90
13744;DHT22;6943;52.368;9.966;2023-03-01T14:15:13;6.70;99.90
13744;DHT22;6943;52.368;9.966;2023-03-01T14:17:50;6.70;99.90
13744;DHT22;6943;52.368;9.966;2023-03-01T14:20:23;6.80;99.90
13744;DHT22;6943;52.368;9.966;2023-03-01T14:23:01;6.80;99.90
13744;DHT22;6943;52.368;9.966;2023-03-01T14:25:32;6.70;99.90
13744;DHT22;6943;52.368;9.966;2023-03-01T14:28:16;6.60;99.90
13744;DHT22;6943;52.368;9.966;2023-03-01T14:30:49;6.70;99.90
13744;DHT22;6943;52.368;9.966;2023-03-01T14:38:33;6.70;99.90
13744;DHT22;6943;52.368;9.966;2023-03-01T14:41:03;6.80;99.90
13744;DHT22;6943;52.368;9.966;2023-03-01T14:43:29;6.70;99.90
13744;DHT22;6943;52.368;9.966;2023-03-01T14:45:55;6.70;99.90
13744;DHT22;6943;52.368;9.966;2023-03-01T14:48:21;6.80;99.90
13744;DHT22;6943;52.368;9.966;2023-03-01T14:50:47;6.80;99.90
13744;DHT22;6943;52.368;9.966;2023-03-01T14:53:28;6.80;99.90
13744;DHT22;6943;52.368;9.966;2023-03-01T14:55:56;6.70;99.90
13744;DHT22;6943;52.368;9.966;2023-03-01T14:58:26;6.70;99.90
13744;DHT22;6943;52.368;9.966;2023-03-01T15:01:00;6.70;99.90
13744;DHT22;6943;52.368;9.966;2023-03-01T15:03:38;6.70;99.90
13744;DHT22;6943;52.368;9.966;2023-03-01T15:06:07;6.70;99.90
13744;DHT22;6943;52.368;9.966;2023-03-01T15:08:33;6.70;99.90
13744;DHT22;6943;52.368;9.966;2023-03-01T15:11:15;6.70;99.90
13744;DHT22;6943;52.368;9.966;2023-03-01T15:13:43;6.80;99.90
13744;DHT22;6943;52.368;9.966;2023-03-01T15:16:13;6.70;99.90
13744;DHT22;6943;52.368;9.966;2023-03-01T15:18:54;6.70;99.90
13744;DHT22;6943;52.368;9.966;2023-03-01T15:21:27;6.70;99.90
13744;DHT22;6943;52.368;9.966;2023-03-01T15:26:29;6.70;99.90
13744;DHT22;6943;52.368;9.966;2023-03-01T15:28:57;6.70;99.90
13744;DHT22;6943;52.368;9.966;2023-03-01T15:31:36;6.70;99.90
13744;DHT22;6943;52.368;9.966;2023-03-01T15:36:51;6.70;99.90
13744;DHT22;6943;52.368;9.966;2023-03-01T15:39:36;6.70;99.90
13744;DHT22;6943;52.368;9.966;2023-03-01T15:42:07;6.80;99.90
13744;DHT22;6943;52.368;9.966;2023-03-01T15:44:36;6.80;99.90
13744;DHT22;6943;52.368;9.966;2023-03-01T15:47:23;6.70;99.90
13744;DHT22;6943;52.368;9.966;2023-03-01T15:49:52;6.60;99.90
13744;DHT22;6943;52.368;9.966;2023-03-01T15:52:23;6.60;99.90
13744;DHT22;6943;52.368;9.966;2023-03-01T15:54:57;6.60;99.90
13744;DHT22;6943;52.368;9.966;2023-03-01T15:57:24;6.60;99.90
13744;DHT22;6943;52.368;9.966;2023-03-01T15:59:50;6.50;99.90
13744;DHT22;6943;52.368;9.966;2023-03-01T16:02:15;6.50;99.90
13744;DHT22;6943;52.368;9.966;2023-03-01T16:04:41;6.40;99.90
13744;DHT22;6943;52.368;9.966;2023-03-01T16:07:06;6.40;99.90
13744;DHT22;6943;52.368;9.966;2023-03-01T16:09:32;6.30;99.90
13744;DHT22;6943;52.368;9.966;2023-03-01T16:11:57;6.30;99.90
13744;DHT22;6943;52.368;9.966;2023-03-01T16:14:23;6.20;99.90
13744;DHT22;6943;52.368;9.966;2023-03-01T16:16:49;6.10;99.90
13744;DHT22;6943;52.368;9.966;2023-03-01T16:19:15;6.00;99.90
13744;DHT22;6943;52.368;9.966;2023-03-01T16:21:41;6.00;99.90
13744;DHT22;6943;52.368;9.966;2023-03-01T16:24:09;5.90;99.90
13744;DHT22;6943;52.368;9.966;2023-03-01T16:26:36;5.90;99.90
13744;DHT22;6943;52.368;9.966;2023-03-01T16:29:02;5.80;99.90
13744;DHT22;6943;52.368;9.966;2023-03-01T16:31:28;5.70;99.90
13744;DHT22;6943;52.368;9.966;2023-03-01T16:33:55;5.60;99.90
13744;DHT22;6943;52.368;9.966;2023-03-01T16:36:21;5.60;99.90
13744;DHT22;6943;52.368;9.966;2023-03-01T16:38:49;5.60;99.90
13744;DHT22;6943;52.368;9.966;2023-03-01T16:41:16;5.50;99.90
13744;DHT22;6943;52.368;9.966;2023-03-01T16:43:43;5.40;99.90
13744;DHT22;6943;52.368;9.966;2023-03-01T16:46:13;5.40;99.90
13744;DHT22;6943;52.368;9.966;2023-03-01T16:48:39;5.30;99.90
13744;DHT22;6943;52.368;9.966;2023-03-01T16:51:06;5.30;99.90
13744;DHT22;6943;52.368;9.966;2023-03-01T16:53:33;5.20;99.90
13744;DHT22;6943;52.368;9.966;2023-03-01T16:56:01;5.20;99.90
13744;DHT22;6943;52.368;9.966;2023-03-01T16:58:37;5.10;99.90
13744;DHT22;6943;52.368;9.966;2023-03-01T17:01:11;5.00;99.90
13744;DHT22;6943;52.368;9.966;2023-03-01T17:03:37;4.90;99.90
13744;DHT22;6943;52.368;9.966;2023-03-01T17:06:04;4.80;99.90
13744;DHT22;6943;52.368;9.966;2023-03-01T17:08:31;4.60;99.90
13744;DHT22;6943;52.368;9.966;2023-03-01T17:11:02;4.50;99.90
13744;DHT22;6943;52.368;9.966;2023-03-01T17:13:28;4.40;99.90
13744;DHT22;6943;52.368;9.966;2023-03-01T17:15:53;5.50;99.90
13744;DHT22;6943;52.368;9.966;2023-03-01T17:18:19;4.30;99.90
13744;DHT22;6943;52.368;9.966;2023-03-01T17:20:44;4.20;99.90
13744;DHT22;6943;52.368;9.966;2023-03-01T17:23:10;4.00;99.90
13744;DHT22;6943;52.368;9.966;2023-03-01T17:25:35;3.90;99.90
13744;DHT22;6943;52.368;9.966;2023-03-01T17:28:07;3.80;99.90
13744;DHT22;6943;52.368;9.966;2023-03-01T17:30:32;3.70;99.90
13744;DHT22;6943;52.368;9.966;2023-03-01T17:32:58;3.70;99.90